NCAR-RAP Real-Time Weather Data

Output produced by METARs form (12 August 2020  17:23 UTC)
found at http://weather.rap.ucar.edu/surface/
 
KABI 121652Z 17012KT 10SM 34/19 A2998 RMK AO2 SLP120 T03440194 $
KABI 121552Z 19013KT 10SM CLR 32/20 A2999 RMK AO2 SLP124 T03220200 $
KABI 121452Z 21012KT 10SM CLR 31/21 A2999 RMK AO2 SLP123 T03060206 51008
KABI 121352Z 20014G20KT 10SM CLR 28/21 A2998 RMK AO2 SLP122 T02830211
KABI 121252Z 20010KT 10SM CLR 27/20 A2998 RMK AO2 SLP120 T02720200
KABI 121152Z 18010KT 10SM CLR 27/19 A2996 RMK AO2 SLP112 T02670189 10300 20267 51005
KABI 121052Z 18009KT 10SM CLR 27/18 A2996 RMK AO2 SLP111 T02720183
KABI 120952Z 19012KT 10SM CLR 28/18 A2996 RMK AO2 SLP110 T02830183
KABI 120852Z 17010KT 10SM CLR 28/17 A2994 RMK AO2 SLP106 T02830172 50001
KABI 120752Z 17007KT 10SM CLR 29/17 A2995 RMK AO2 SLP107 T02890167
KABI 120652Z 17010KT 10SM CLR 30/17 A2994 RMK AO2 SLP105 T03000167
KABI 120552Z 16009KT 10SM CLR 30/16 A2994 RMK AO2 SLP105 T03000161 10378 20289 403830261 51008
KABI 120452Z 16008KT 10SM CLR 30/16 A2993 RMK AO2 SLP104 T03000156
KABI 120352Z 15007KT 10SM CLR 29/16 A2993 RMK AO2 SLP104 T02890156
KABI 120252Z 14007KT 10SM CLR 30/16 A2991 RMK AO2 SLP098 T03000156 53009
KABI 120152Z 15007KT 10SM CLR 33/14 A2989 RMK AO2 SLP091 T03280144
KABI 120052Z 18013KT 10SM CLR 36/15 A2989 RMK AO2 SLP088 T03610150
KABI 112352Z 17008KT 10SM CLR 38/15 A2988 RMK AO2 SLP085 T03780150 10383 20344 56010
KABI 112252Z 18010G17KT 10SM CLR 38/15 A2989 RMK AO2 SLP088 T03830150
KABI 112152Z 19010G19KT 10SM CLR 38/16 A2990 RMK AO2 SLP090 T03830156
KABI 112052Z 19010KT 10SM CLR 37/16 A2991 RMK AO2 SLP096 T03720161 58021